Tims Ford Observed Data For Previous 48 Hours

Caption
Day and Hour Reservoir Elevation (behind dam)* Tailwater Elevation (below dam)* Average Hourly Discharge*
3/18/2019 1 AM CDT 880.00 744.69 374
3/18/2019 2 AM CDT 880.00 744.21 240
3/18/2019 3 AM CDT 880.02 744.14 240
3/18/2019 4 AM CDT 880.02 744.14 240
3/18/2019 5 AM CDT 880.03 744.14 240
3/18/2019 6 AM CDT 880.03 744.26 240
3/18/2019 7 AM CDT 880.03 750.17 3,553
3/18/2019 8 AM CDT 879.98 750.32 3,829
3/18/2019 9 AM CDT 879.97 750.37 3,848
3/18/2019 10 AM CDT 879.95 750.37 3,843
3/18/2019 11 AM CDT 879.92 744.69 428
3/18/2019 12 PM CDT 879.93 744.19 240
3/18/2019 1 PM CDT 879.96 744.13 240
3/18/2019 2 PM CDT 879.94 744.12 240
3/18/2019 3 PM CDT 879.96 744.12 240
3/18/2019 4 PM CDT 879.97 744.11 240
3/18/2019 5 PM CDT 879.95 744.26 240
3/18/2019 6 PM CDT 879.95 750.12 3,523
3/18/2019 7 PM CDT 879.91 750.33 3,839
3/18/2019 8 PM CDT 879.89 750.33 3,827
3/18/2019 9 PM CDT 879.87 750.34 3,832
3/18/2019 10 PM CDT 879.84 750.33 3,821
3/18/2019 11 PM CDT 879.83 744.67 373
3/19/2019 12 AM CDT 879.86 744.20 240
3/19/2019 1 AM CDT 879.85 744.14 240
3/19/2019 2 AM CDT 879.86 744.14 240
3/19/2019 3 AM CDT 879.87 744.14 240
3/19/2019 4 AM CDT 879.88 744.13 240
3/19/2019 5 AM CDT 879.88 744.31 240
3/19/2019 6 AM CDT 879.87 750.19 3,564
3/19/2019 7 AM CDT 879.82 750.31 3,823
3/19/2019 8 AM CDT 879.81 750.32 3,824
3/19/2019 9 AM CDT 879.79 750.33 3,816
3/19/2019 10 AM CDT 879.77 744.66 415
3/19/2019 11 AM CDT 879.78 744.19 240
3/19/2019 12 PM CDT 879.78 744.14 240
3/19/2019 1 PM CDT 879.79 744.15 240
3/19/2019 2 PM CDT 879.80 744.12 240
3/19/2019 3 PM CDT 879.80 744.14 240
3/19/2019 4 PM CDT 879.81 744.12 240
3/19/2019 5 PM CDT 879.81 744.31 240
3/19/2019 6 PM CDT 879.80 750.11 3,512
3/19/2019 7 PM CDT 879.76 750.34 3,839
3/19/2019 8 PM CDT 879.74 750.34 3,833
3/19/2019 9 PM CDT 879.72 750.35 3,845
3/19/2019 10 PM CDT 879.68 750.29 3,830
3/19/2019 11 PM CDT 879.68 744.66 366
3/20/2019 12 AM CDT 879.70 744.20 240
3/20/2019 1 AM CDT 879.69 744.14 240
3/20/2019 2 AM CDT 879.70 744.13 240
3/20/2019 3 AM CDT 879.71 744.12 240
3/20/2019 4 AM CDT 879.72 744.11 240
3/20/2019 5 AM CDT 879.72 744.11 240
3/20/2019 6 AM CDT 879.70 744.31 240
3/20/2019 7 AM CDT 879.71 750.13 3,574
3/20/2019 8 AM CDT 879.67 750.30 3,834

Elevations are in feet above sea level. Discharges are in cubic feet per second and are reported at the end of the hour.